createdAt,value
2019-02-16T00:17:41.156Z,0.90
2019-02-16T00:27:42.310Z,1.12
2019-02-16T00:48:14.259Z,0.77
2019-02-16T00:58:16.539Z,0.51
2019-02-16T01:08:17.476Z,0.39
2019-02-16T01:18:18.218Z,0.18
2019-02-16T01:28:19.000Z,0.08
2019-02-16T01:38:19.752Z,-0.04
2019-02-16T01:48:20.450Z,-0.01
2019-02-16T02:08:55.606Z,0.07
2019-02-16T02:18:56.329Z,0.03
2019-02-16T02:28:57.244Z,0.36
2019-02-16T02:38:58.325Z,0.30
2019-02-16T02:49:04.577Z,-0.84
2019-02-16T02:59:05.338Z,-0.62
2019-02-16T03:09:06.150Z,-0.68
2019-02-16T03:19:10.351Z,-0.70
2019-02-16T03:29:23.547Z,-0.57
2019-02-16T03:39:24.771Z,-0.23
2019-02-16T03:49:26.707Z,-0.27
2019-02-16T04:09:43.565Z,-1.03
2019-02-16T04:19:45.552Z,-1.43
2019-02-16T04:29:52.339Z,-1.03
2019-02-16T04:39:53.192Z,-0.70
2019-02-16T04:49:55.108Z,-0.99
2019-02-16T04:59:56.889Z,-0.67
2019-02-16T05:20:30.791Z,-1.07
2019-02-16T05:41:09.409Z,-0.92
2019-02-16T05:51:39.208Z,-1.03
2019-02-16T06:01:40.194Z,-1.38
2019-02-16T06:11:43.952Z,-1.23
2019-02-16T06:21:45.001Z,-1.27
2019-02-16T06:42:13.761Z,-2.09
2019-02-16T06:52:14.771Z,-1.35
2019-02-16T07:02:16.215Z,-1.51
2019-02-16T07:12:40.025Z,-1.29
2019-02-16T07:22:40.849Z,-0.29
2019-02-16T07:32:41.476Z,0.82
2019-02-16T07:42:42.270Z,1.11
2019-02-16T07:52:43.977Z,0.53
2019-02-16T08:02:58.294Z,1.55
2019-02-16T08:13:04.032Z,2.54
2019-02-16T08:23:05.205Z,2.43
2019-02-16T08:33:05.898Z,1.43
2019-02-16T08:43:06.948Z,1.42
2019-02-16T08:53:15.980Z,1.44
2019-02-16T09:03:16.962Z,3.23
2019-02-16T09:13:19.895Z,3.44
2019-02-16T09:23:24.844Z,3.56
2019-02-16T09:54:12.845Z,3.86
2019-02-16T10:04:25.473Z,4.72
2019-02-16T10:33:21.356Z,6.70
2019-02-16T10:43:22.299Z,6.53
2019-02-16T10:53:26.902Z,7.26
2019-02-16T11:03:29.920Z,7.51
2019-02-16T11:13:33.216Z,7.98
2019-02-16T11:23:33.868Z,9.38
2019-02-16T11:34:06.147Z,9.06
2019-02-16T11:54:45.223Z,9.50
2019-02-16T12:04:36.753Z,9.33
2019-02-16T12:25:19.126Z,10.47
2019-02-16T12:35:24.211Z,11.34
2019-02-16T12:45:36.504Z,10.19
2019-02-16T12:55:43.677Z,10.55
2019-02-16T13:05:48.111Z,11.17
2019-02-16T13:16:00.102Z,11.82
2019-02-16T13:26:01.285Z,11.78
2019-02-16T13:36:11.616Z,12.89
2019-02-16T13:46:20.347Z,13.72
2019-02-16T14:06:30.538Z,14.66
2019-02-16T14:27:01.244Z,15.25
2019-02-16T14:37:11.475Z,15.74
2019-02-16T14:47:13.662Z,15.89
2019-02-16T14:57:14.874Z,15.21
2019-02-16T15:07:16.204Z,17.10
2019-02-16T15:17:18.095Z,16.44
2019-02-16T15:27:19.985Z,15.98
2019-02-16T15:37:25.996Z,16.75
2019-02-16T15:47:27.252Z,17.81
2019-02-16T15:57:39.245Z,17.39
2019-02-16T16:08:40.952Z,16.26
2019-02-16T16:17:51.789Z,15.59
2019-02-16T16:27:52.605Z,14.15
2019-02-16T16:37:59.233Z,12.13
2019-02-16T16:48:02.928Z,11.04
2019-02-16T16:58:08.661Z,10.17
2019-02-16T17:08:09.541Z,11.09
2019-02-16T17:18:10.351Z,10.67
2019-02-16T17:28:24.541Z,10.32
2019-02-16T17:38:34.937Z,10.40
2019-02-16T17:49:04.220Z,9.60
2019-02-16T17:59:37.636Z,8.37
2019-02-16T18:09:39.698Z,7.13
2019-02-16T18:20:10.268Z,6.80
2019-02-16T18:41:30.038Z,5.87
2019-02-16T18:51:29.792Z,5.66
2019-02-16T19:01:30.689Z,5.44
2019-02-16T19:11:31.754Z,5.46
2019-02-16T19:21:32.478Z,4.52
2019-02-16T19:31:33.177Z,3.82
2019-02-16T19:41:33.876Z,4.33
2019-02-16T19:51:34.837Z,3.95
2019-02-16T20:01:35.657Z,4.25
2019-02-16T20:11:36.512Z,3.97
2019-02-16T20:21:37.213Z,3.66
2019-02-16T20:31:41.954Z,3.23
2019-02-16T20:41:42.899Z,3.31
2019-02-16T20:51:43.808Z,2.15
2019-02-16T21:01:47.539Z,2.49
2019-02-16T21:11:48.197Z,2.70
2019-02-16T21:21:49.130Z,2.63
2019-02-16T21:31:57.915Z,2.72
2019-02-16T21:41:58.698Z,2.62
2019-02-16T21:52:09.030Z,2.25
2019-02-16T22:02:11.805Z,2.21
2019-02-16T22:12:12.504Z,1.93
2019-02-16T22:22:13.375Z,1.98
2019-02-16T22:32:14.157Z,2.00
2019-02-16T22:42:18.080Z,1.90
2019-02-16T22:52:19.049Z,1.69
2019-02-16T23:02:20.208Z,1.82
2019-02-16T23:12:20.859Z,1.71
2019-02-16T23:22:21.776Z,1.29
2019-02-16T23:32:23.918Z,1.47
2019-02-16T23:42:28.011Z,1.48
2019-02-16T23:52:30.061Z,1.07
